Time;durP1;ratioP1;P1;durP2;ratioP2;P2;SDS_P1;SDS_P2;PMS_P1;PMS_P2;Temp;Humidity;BMP_temperature;BMP_pressure;BME280_temperature;BME280_humidity;BME280_pressure;Samples;Min_cycle;Max_cycle;Signal;HPM_P1;HPM_P2
2023/04/25 00:02:05;;;;;;;1999.90;999.90;;;;;;;8.21;100.00;94682.50;4986136;28;20276;-62
2023/04/25 00:04:32;;;;;;;1999.90;999.90;;;;;;;8.23;100.00;94674.75;4970618;28;20211;-62
2023/04/25 00:07:01;;;;;;;1999.90;999.90;;;;;;;8.22;100.00;94686.78;4986186;28;20214;-62
2023/04/25 00:09:27;;;;;;;1999.90;999.90;;;;;;;8.20;100.00;94684.44;4986319;28;20208;-62
2023/04/25 00:11:52;;;;;;;1999.90;999.90;;;;;;;8.20;100.00;94684.44;4985957;28;20267;-61
2023/04/25 00:14:18;;;;;;;1999.90;999.90;;;;;;;8.20;100.00;94680.97;4986447;28;20192;-61
2023/04/25 00:16:44;;;;;;;1999.90;999.90;;;;;;;8.22;100.00;94670.47;4986097;28;20200;-61
2023/04/25 00:19:09;;;;;;;1999.90;999.90;;;;;;;8.24;100.00;94690.69;4986123;28;20189;-61
2023/04/25 00:21:35;;;;;;;1999.90;999.90;;;;;;;8.27;100.00;94689.84;4985804;28;20208;-61
2023/04/25 00:24:01;;;;;;;1999.90;999.90;;;;;;;8.28;100.00;94696.84;4986140;28;20197;-61
2023/04/25 00:26:27;;;;;;;1999.90;999.90;;;;;;;8.31;100.00;94690.56;4986054;28;20204;-62
2023/04/25 00:28:52;;;;;;;1999.90;999.90;;;;;;;8.35;100.00;94683.16;4969548;28;20196;-62
2023/04/25 00:31:17;;;;;;;1999.90;999.90;;;;;;;8.39;100.00;94683.91;4969671;28;20235;-61
2023/04/25 00:33:43;;;;;;;1999.90;999.90;;;;;;;8.39;100.00;94689.34;4986118;28;20196;-61
2023/04/25 00:36:09;;;;;;;1999.90;999.90;;;;;;;8.42;100.00;94693.19;4986046;28;20204;-61
2023/04/25 00:38:34;;;;;;;1999.90;999.90;;;;;;;8.43;100.00;94687.34;4985989;28;20196;-61
2023/04/25 00:41:00;;;;;;;1999.90;999.90;;;;;;;8.41;100.00;94678.81;4985550;28;20271;-61
2023/04/25 00:43:30;;;;;;;1999.90;999.90;;;;;;;8.40;100.00;94677.28;4985435;28;20200;-61
2023/04/25 00:45:57;;;;;;;1999.90;999.90;;;;;;;8.42;100.00;94680.34;4985527;28;20215;-61
2023/04/25 00:48:23;;;;;;;1999.90;999.90;;;;;;;8.41;100.00;94684.25;4985510;28;20192;-61
2023/04/25 00:50:54;;;;;;;1999.90;999.90;;;;;;;8.35;100.00;94675.00;4985341;28;20251;-61
2023/04/25 00:53:23;;;;;;;1999.90;999.90;;;;;;;8.37;100.00;94671.84;4985096;28;20196;-61
2023/04/25 00:55:53;;;;;;;1999.90;999.90;;;;;;;8.34;100.00;94675.41;4985570;28;20196;-61
2023/04/25 00:58:21;;;;;;;1999.90;999.90;;;;;;;8.32;100.00;94669.59;4985778;28;20207;-61
2023/04/25 01:00:49;;;;;;;1999.90;999.90;;;;;;;8.29;100.00;94664.97;4985196;28;20200;-61
2023/04/25 01:03:21;;;;;;;1999.90;999.90;;;;;;;8.26;100.00;94666.53;4985664;28;20200;-61
2023/04/25 01:05:47;;;;;;;1999.90;999.90;;;;;;;8.22;100.00;94671.25;4985437;28;20328;-61
2023/04/25 01:08:13;;;;;;;1999.90;999.90;;;;;;;8.18;100.00;94669.72;4985125;28;20199;-61
2023/04/25 01:10:39;;;;;;;1999.90;999.90;;;;;;;8.14;100.00;94680.66;4985138;28;20204;-61
2023/04/25 01:13:04;;;;;;;1999.90;999.90;;;;;;;8.12;100.00;94672.09;4985431;28;20204;-61
2023/04/25 01:15:30;;;;;;;1999.90;999.90;;;;;;;8.12;100.00;94666.66;4985070;28;20196;-61
2023/04/25 01:17:56;;;;;;;1999.90;999.90;;;;;;;8.12;100.00;94669.38;4968918;28;20208;-61
2023/04/25 01:20:26;;;;;;;1999.90;999.90;;;;;;;8.14;100.00;94669.75;4985008;28;20197;-61
2023/04/25 01:22:52;;;;;;;1999.90;999.90;;;;;;;8.12;100.00;94661.22;4985382;28;20214;-61
2023/04/25 01:25:18;;;;;;;1999.90;999.90;;;;;;;8.10;100.00;94662.81;4984871;28;20208;-60
2023/04/25 01:27:44;;;;;;;1999.90;999.90;;;;;;;8.06;100.00;94662.88;4985456;28;20227;-60
2023/04/25 01:30:10;;;;;;;1999.90;999.90;;;;;;;8.04;100.00;94664.44;4985452;28;20192;-60
2023/04/25 01:32:39;;;;;;;1999.90;999.90;;;;;;;8.03;100.00;94662.88;4968727;28;20231;-61
2023/04/25 01:35:09;;;;;;;1999.90;999.90;;;;;;;8.03;100.00;94665.59;4968897;28;20212;-60
2023/04/25 01:37:39;;;;;;;1999.90;999.90;;;;;;;8.01;100.00;94655.13;4984703;28;20196;-61
2023/04/25 01:40:05;;;;;;;1999.90;999.90;;;;;;;8.01;100.00;94660.56;4984727;28;20188;-61
2023/04/25 01:42:32;;;;;;;1999.90;999.90;;;;;;;7.97;100.00;94659.09;4984928;28;20216;-61
2023/04/25 01:44:58;;;;;;;1999.90;999.90;;;;;;;7.90;100.00;94651.00;4984596;28;20205;-61
2023/04/25 01:47:23;;;;;;;1999.90;999.90;;;;;;;7.83;100.00;94659.97;4984789;28;20197;-61
2023/04/25 01:49:49;;;;;;;1999.90;999.90;;;;;;;7.79;100.00;94658.50;4984900;28;20235;-61
2023/04/25 01:52:14;;;;;;;1999.90;999.90;;;;;;;7.73;100.00;94652.72;4984671;28;20295;-61
2023/04/25 01:54:43;;;;;;;1999.90;999.90;;;;;;;7.65;100.00;94648.50;4984889;28;20180;-61
2023/04/25 01:57:09;;;;;;;1999.90;999.90;;;;;;;7.59;100.00;94650.13;4984954;28;20197;-61
2023/04/25 01:59:35;;;;;;;1999.90;999.90;;;;;;;7.56;100.00;94656.34;4968470;28;20202;-61
2023/04/25 02:02:03;;;;;;;1999.90;999.90;;;;;;;7.55;100.00;94648.63;4984402;28;20275;-60
2023/04/25 02:04:29;;;;;;;1999.90;999.90;;;;;;;7.52;100.00;94644.75;4987879;28;20193;-61
2023/04/25 02:06:54;;;;;;;1999.90;999.90;;;;;;;7.51;100.00;94637.78;4988446;28;20231;-60
2023/04/25 02:09:19;;;;;;;1999.90;999.90;;;;;;;7.50;100.00;94636.22;4988227;28;20194;-60
2023/04/25 02:11:45;;;;;;;1999.90;999.90;;;;;;;7.48;100.00;94633.16;4988250;28;20282;-60
2023/04/25 02:14:10;;;;;;;1999.90;999.90;;;;;;;7.42;100.00;94632.03;4988324;28;20265;-60
2023/04/25 02:16:35;;;;;;;1999.90;999.90;;;;;;;7.37;100.00;94632.47;4988335;28;20216;-61
2023/04/25 02:19:01;;;;;;;1999.90;999.90;;;;;;;7.33;100.00;94631.75;4988220;28;20216;-60
2023/04/25 02:21:27;;;;;;;1999.90;999.90;;;;;;;7.32;100.00;94635.59;4988286;28;20244;-61
2023/04/25 02:23:52;;;;;;;1999.90;999.90;;;;;;;7.26;100.00;94634.50;4988618;28;20180;-61
2023/04/25 02:26:17;;;;;;;1999.90;999.90;;;;;;;7.23;100.00;94642.66;4987937;28;20260;-61
2023/04/25 02:28:43;;;;;;;1999.90;999.90;;;;;;;7.19;100.00;94631.06;4988148;28;20194;-61
2023/04/25 02:31:08;;;;;;;1999.90;999.90;;;;;;;7.19;100.00;94626.41;4988261;28;20203;-61
2023/04/25 02:33:34;;;;;;;1999.90;999.90;;;;;;;7.21;100.00;94623.31;4987929;28;20210;-60
2023/04/25 02:35:59;;;;;;;1999.90;999.90;;;;;;;7.22;100.00;94625.63;4987780;28;20267;-60
2023/04/25 02:38:25;;;;;;;1999.90;999.90;;;;;;;7.27;100.00;94627.91;4987923;28;20197;-60
2023/04/25 02:40:50;;;;;;;1999.90;999.90;;;;;;;7.28;100.00;94626.72;4987745;28;20200;-61
2023/04/25 02:43:16;;;;;;;1999.90;999.90;;;;;;;7.33;100.00;94620.88;4987877;28;20192;-61
2023/04/25 02:45:41;;;;;;;1999.90;999.90;;;;;;;7.34;100.00;94622.41;4987868;28;20235;-61
2023/04/25 02:48:06;;;;;;;1999.90;999.90;;;;;;;7.32;100.00;94624.75;4987822;28;20199;-61
2023/04/25 02:50:32;;;;;;;1999.90;999.90;;;;;;;7.31;100.00;94625.91;4987844;28;20219;-61
2023/04/25 02:52:57;;;;;;;1999.90;999.90;;;;;;;7.30;100.00;94627.09;4987226;28;20187;-61
2023/04/25 02:55:22;;;;;;;1999.90;999.90;;;;;;;7.32;100.00;94624.75;4987757;28;20180;-61
2023/04/25 02:57:48;;;;;;;1999.90;999.90;;;;;;;7.36;100.00;94620.03;4987922;28;20212;-60
2023/04/25 03:00:14;;;;;;;1999.90;999.90;;;;;;;7.40;100.00;94626.25;4987686;28;20229;-60
2023/04/25 03:02:39;;;;;;;1999.90;999.90;;;;;;;7.45;100.00;94628.53;4987833;28;20239;-61
2023/04/25 03:05:05;;;;;;;1999.90;999.90;;;;;;;7.47;100.00;94626.16;4987854;28;20219;-60
2023/04/25 03:07:31;;;;;;;1999.90;999.90;;;;;;;7.51;100.00;94624.22;4987520;28;20279;-61
2023/04/25 03:09:56;;;;;;;1999.90;999.90;;;;;;;7.53;100.00;94624.56;4987528;28;20189;-61
2023/04/25 03:12:22;;;;;;;1999.90;999.90;;;;;;;7.57;100.00;94632.69;4987148;28;20267;-60
2023/04/25 03:14:47;;;;;;;1999.90;999.90;;;;;;;7.58;100.00;94632.25;4986754;28;20196;-60
2023/04/25 03:17:12;;;;;;;1999.90;999.90;;;;;;;7.64;100.00;94630.66;4986989;28;20196;-60
2023/04/25 03:19:38;;;;;;;1999.90;999.90;;;;;;;7.62;100.00;94614.00;4987070;28;20199;-60
2023/04/25 03:22:03;;;;;;;1999.90;999.90;;;;;;;7.63;100.00;94612.03;4987259;28;20292;-60
2023/04/25 03:24:28;;;;;;;1999.90;999.90;;;;;;;7.66;100.00;94616.69;4987540;28;20199;-61
2023/04/25 03:26:54;;;;;;;1999.90;999.90;;;;;;;7.67;100.00;94608.13;4987640;28;20184;-60
2023/04/25 03:29:24;;;;;;;1999.90;999.90;;;;;;;7.64;100.00;94606.22;4987371;28;20226;-61
2023/04/25 03:31:49;;;;;;;1999.90;999.90;;;;;;;7.63;100.00;94601.97;4987498;28;20196;-60
2023/04/25 03:34:15;;;;;;;1999.90;999.90;;;;;;;7.66;100.00;94601.16;4987311;28;20200;-60
2023/04/25 03:36:40;;;;;;;1999.90;999.90;;;;;;;7.65;100.00;94599.59;4986850;28;20295;-60
2023/04/25 03:39:06;;;;;;;1999.90;999.90;;;;;;;7.60;100.00;94597.34;4987093;28;20204;-60
2023/04/25 03:41:31;;;;;;;1999.90;999.90;;;;;;;7.66;100.00;94605.81;4986475;28;20277;-61
2023/04/25 03:43:56;;;;;;;1999.90;999.90;;;;;;;7.55;100.00;94603.22;4986640;28;20223;-60
2023/04/25 03:46:22;;;;;;;1999.90;999.90;;;;;;;7.52;100.00;94601.28;4986593;28;20199;-60
2023/04/25 03:48:47;;;;;;;1999.90;999.90;;;;;;;7.49;100.00;94596.66;4970480;28;20200;-60
2023/04/25 03:51:12;;;;;;;1999.90;999.90;;;;;;;7.58;100.00;94599.66;4986755;28;20204;-60
2023/04/25 03:53:38;;;;;;;1999.90;999.90;;;;;;;7.48;100.00;94597.84;4986681;28;20196;-60
2023/04/25 03:56:03;;;;;;;1999.90;999.90;;;;;;;7.55;100.00;94594.28;4986377;28;20311;-61
2023/04/25 03:58:29;;;;;;;1999.90;999.90;;;;;;;7.52;100.00;94604.00;4970691;28;20181;-61
2023/04/25 04:00:54;;;;;;;1999.90;999.90;;;;;;;7.54;100.00;94603.63;4986608;28;20225;-60
2023/04/25 04:03:20;;;;;;;1999.90;999.90;;;;;;;7.59;100.00;94603.16;4986221;28;20198;-61
2023/04/25 04:05:46;;;;;;;1999.90;999.90;;;;;;;7.45;100.00;94595.94;4986116;28;20192;-60
2023/04/25 04:08:11;;;;;;;1999.90;999.90;;;;;;;7.43;100.00;94597.50;4986367;28;20263;-61
2023/04/25 04:10:37;;;;;;;1999.90;999.90;;;;;;;7.41;100.00;94589.75;4986302;28;20221;-60
2023/04/25 04:13:02;;;;;;;1999.90;999.90;;;;;;;7.43;100.00;94586.66;4986166;28;20195;-60
2023/04/25 04:15:28;;;;;;;1999.90;999.90;;;;;;;7.45;100.00;94589.72;4985951;28;20270;-61
2023/04/25 04:17:54;;;;;;;1999.90;999.90;;;;;;;7.38;100.00;94590.56;4985704;28;20445;-60
2023/04/25 04:20:19;;;;;;;1999.90;999.90;;;;;;;7.37;100.00;94588.25;4970045;28;20243;-60
2023/04/25 04:22:45;;;;;;;1999.90;999.90;;;;;;;7.39;100.00;94585.91;4970243;28;20208;-60
2023/04/25 04:25:11;;;;;;;1999.90;999.90;;;;;;;7.41;100.00;94580.84;4986579;28;20204;-60
2023/04/25 04:27:37;;;;;;;1999.90;999.90;;;;;;;7.38;100.00;94573.47;4985397;28;20214;-61
2023/04/25 04:30:03;;;;;;;1999.90;999.90;;;;;;;7.35;100.00;94569.63;4986245;28;20211;-61
2023/04/25 04:32:30;;;;;;;1999.90;999.90;;;;;;;7.34;100.00;94578.97;4986014;28;20235;-61
2023/04/25 04:34:55;;;;;;;1999.90;999.90;;;;;;;7.40;100.00;94566.50;4985928;28;20192;-62
2023/04/25 04:37:21;;;;;;;1999.90;999.90;;;;;;;7.41;100.00;94569.97;4986027;28;20202;-61
2023/04/25 04:39:47;;;;;;;1999.90;999.90;;;;;;;7.55;100.00;94578.75;4986052;28;20227;-62
2023/04/25 04:42:12;;;;;;;1999.90;999.90;;;;;;;7.51;100.00;94588.91;4985823;28;20208;-61
2023/04/25 04:44:38;;;;;;;1999.90;999.90;;;;;;;7.53;100.00;94586.53;4985454;28;20196;-61
2023/04/25 04:47:06;;;;;;;1999.90;999.90;;;;;;;7.55;100.00;94597.78;4985346;28;20191;-61
2023/04/25 04:49:31;;;;;;;1999.90;999.90;;;;;;;7.51;100.00;94599.75;4985539;28;20192;-62
2023/04/25 04:51:56;;;;;;;1999.90;999.90;;;;;;;7.57;100.00;94608.25;4985852;28;20192;-61
2023/04/25 04:54:22;;;;;;;1999.90;999.90;;;;;;;7.56;100.00;94599.31;4969416;28;20192;-61
2023/04/25 04:56:47;;;;;;;1999.90;999.90;;;;;;;7.62;100.00;94595.00;4985096;28;20216;-62
2023/04/25 04:59:12;;;;;;;1999.90;999.90;;;;;;;7.63;100.00;94593.81;4985690;28;20173;-61
2023/04/25 05:01:38;;;;;;;1999.90;999.90;;;;;;;7.75;100.00;94585.13;4985231;28;20207;-61
2023/04/25 05:04:04;;;;;;;1999.90;999.90;;;;;;;7.80;100.00;94584.72;4985375;28;20199;-61
2023/04/25 05:06:30;;;;;;;1999.90;999.90;;;;;;;7.86;100.00;94574.91;4985395;28;20196;-61
2023/04/25 05:08:56;;;;;;;1999.90;999.90;;;;;;;7.91;100.00;94582.66;4985076;28;20267;-61
2023/04/25 05:11:23;;;;;;;1999.90;999.90;;;;;;;7.99;100.00;94586.03;4969167;28;20219;-61
2023/04/25 05:13:49;;;;;;;1999.90;999.90;;;;;;;8.03;100.00;94587.53;4984931;28;20188;-61
2023/04/25 05:16:15;;;;;;;1999.90;999.90;;;;;;;8.02;100.00;94590.66;4984976;28;20210;-61
2023/04/25 05:18:40;;;;;;;1999.90;999.90;;;;;;;7.92;100.00;94597.78;4984916;28;20264;-61
2023/04/25 05:21:06;;;;;;;1999.90;999.90;;;;;;;7.89;100.00;94593.16;4985270;28;20204;-61
2023/04/25 05:23:32;;;;;;;1999.90;999.90;;;;;;;7.91;100.00;94595.47;4968965;28;20212;-61
2023/04/25 05:25:58;;;;;;;1999.90;999.90;;;;;;;7.98;100.00;94585.25;4968558;28;20200;-64
2023/04/25 05:28:24;;;;;;;1999.90;999.90;;;;;;;8.03;100.00;94584.84;4985269;28;20211;-61
2023/04/25 05:30:49;;;;;;;1999.90;999.90;;;;;;;8.14;100.00;94592.84;4985150;28;20199;-61
2023/04/25 05:33:15;;;;;;;1999.90;999.90;;;;;;;8.15;100.00;94584.28;4984442;28;20219;-61
2023/04/25 05:35:41;;;;;;;1999.90;999.90;;;;;;;8.16;100.00;94585.06;4985098;28;20196;-61
2023/04/25 05:38:06;;;;;;;1999.90;999.90;;;;;;;8.27;100.00;94591.94;4987420;28;20199;-60
2023/04/25 05:40:32;;;;;;;1999.90;999.90;;;;;;;8.31;100.00;94589.94;4991537;28;20196;-61
2023/04/25 05:42:57;;;;;;;1999.90;999.90;;;;;;;8.34;100.00;94580.97;4991092;28;20223;-60
2023/04/25 05:45:23;;;;;;;1999.90;999.90;;;;;;;8.39;100.00;94582.47;4991038;28;20199;-59
2023/04/25 05:47:48;;;;;;;1999.90;999.90;;;;;;;8.46;100.00;94583.16;4991112;28;20226;-60
2023/04/25 05:50:13;;;;;;;1999.90;999.90;;;;;;;8.70;100.00;94576.59;4990830;28;20192;-60
2023/04/25 05:52:39;;;;;;;1999.90;999.90;;;;;;;9.07;100.00;94573.69;4991213;28;20195;-60
2023/04/25 05:55:05;;;;;;;1999.90;999.90;;;;;;;9.42;100.00;94578.56;4990983;28;20203;-61
2023/04/25 05:57:30;;;;;;;1999.90;999.90;;;;;;;9.73;100.00;94587.34;4990675;28;20269;-61
2023/04/25 05:59:56;;;;;;;1999.90;999.90;;;;;;;10.45;100.00;94615.63;4991488;28;20179;-61
2023/04/25 06:02:21;;;;;;;1999.90;999.90;;;;;;;10.75;100.00;94615.34;4974921;28;20217;-59
2023/04/25 06:04:49;;;;;;;1999.90;999.90;;;;;;;10.45;100.00;94626.53;4991278;28;20202;-60
2023/04/25 06:07:14;;;;;;;1999.90;999.90;;;;;;;10.01;100.00;94617.59;4990770;28;20205;-60
2023/04/25 06:09:40;;;;;;;1999.90;999.90;;;;;;;9.34;100.00;94620.72;4990749;28;20277;-60
2023/04/25 06:12:06;;;;;;;1999.90;999.90;;;;;;;9.01;100.00;94624.38;4991225;28;20204;-60
2023/04/25 06:14:32;;;;;;;1999.90;999.90;;;;;;;8.55;100.00;94634.31;4991175;28;20202;-60
2023/04/25 06:16:57;;;;;;;1999.90;999.90;;;;;;;8.24;100.00;94624.63;4974808;28;20213;-59
2023/04/25 06:19:23;;;;;;;1999.90;999.90;;;;;;;8.02;100.00;94606.97;4990814;28;20219;-60
2023/04/25 06:21:48;;;;;;;1999.90;999.90;;;;;;;7.85;100.00;94580.75;4990706;28;20208;-62
2023/04/25 06:24:13;;;;;;;1999.90;999.90;;;;;;;7.67;100.00;94559.22;4991377;28;20204;-62
2023/04/25 06:26:39;;;;;;;1999.90;999.90;;;;;;;7.45;100.00;94552.47;4990739;28;20302;-63
2023/04/25 06:29:04;;;;;;;1999.90;999.90;;;;;;;7.29;100.00;94522.38;4990627;28;20200;-66
2023/04/25 06:31:32;;;;;;;1999.90;999.90;;;;;;;7.35;100.00;94515.31;4991133;28;20203;-63
2023/04/25 06:33:57;;;;;;;1999.90;999.90;;;;;;;7.35;100.00;94482.72;4990889;28;20400;-63
2023/04/25 06:36:24;;;;;;;1999.90;999.90;;;;;;;7.47;100.00;94446.16;4990780;28;20208;-63
2023/04/25 06:38:51;;;;;;;1999.90;999.90;;;;;;;7.55;100.00;94429.34;4990924;28;20271;-63
2023/04/25 06:41:16;;;;;;;1999.90;999.90;;;;;;;7.56;100.00;94397.50;4991008;28;20215;-63
2023/04/25 06:43:42;;;;;;;1999.90;999.90;;;;;;;7.80;100.00;94345.56;4990709;28;20287;-65
2023/04/25 06:46:07;;;;;;;1999.90;999.90;;;;;;;8.81;100.00;94266.09;4990644;28;20208;-65
2023/04/25 06:48:32;;;;;;;1999.90;999.90;;;;;;;9.60;100.00;94229.38;4974236;28;20204;-65
2023/04/25 06:50:58;;;;;;;1999.90;999.90;;;;;;;9.67;100.00;94262.69;4987104;28;20201;-64
2023/04/25 06:53:23;;;;;;;1999.90;999.90;;;;;;;9.86;100.00;94305.47;4971574;28;20204;-64
2023/04/25 06:55:48;;;;;;;1999.90;999.90;;;;;;;10.06;100.00;94343.63;4987654;28;20200;-64
2023/04/25 06:58:14;;;;;;;1999.90;999.90;;;;;;;10.22;100.00;94378.31;4971491;28;20282;-63
2023/04/25 07:00:39;;;;;;;1999.90;999.90;;;;;;;10.52;100.00;94418.94;4987229;28;20204;-64
2023/04/25 07:03:05;;;;;;;1999.90;999.90;;;;;;;10.84;100.00;94435.28;4987603;28;20303;-64
2023/04/25 07:05:30;;;;;;;1999.90;999.90;;;;;;;10.80;100.00;94483.75;4988063;28;20203;-65
2023/04/25 07:07:55;;;;;;;1999.90;999.90;;;;;;;10.63;100.00;94507.56;4987255;28;20214;-64
2023/04/25 07:10:21;;;;;;;1999.90;999.90;;;;;;;10.43;100.00;94519.72;4987614;28;20211;-64
2023/04/25 07:12:46;;;;;;;1999.90;999.90;;;;;;;10.14;100.00;94525.78;4987455;28;20263;-63
2023/04/25 07:15:12;;;;;;;1999.90;999.90;;;;;;;10.05;100.00;94520.13;4987018;28;20200;-64
2023/04/25 07:17:37;;;;;;;1999.90;999.90;;;;;;;9.91;100.00;94523.09;4987031;28;20207;-64
2023/04/25 07:20:05;;;;;;;1999.90;999.90;;;;;;;9.91;100.00;94512.19;4987020;28;20202;-63
2023/04/25 07:22:30;;;;;;;1999.90;999.90;;;;;;;9.79;100.00;94507.38;4986913;28;20258;-64
2023/04/25 07:24:56;;;;;;;1999.90;999.90;;;;;;;9.82;100.00;94503.03;4970743;28;20214;-63
2023/04/25 07:27:21;;;;;;;1999.90;999.90;;;;;;;9.70;100.00;94509.88;4987097;28;20246;-63
2023/04/25 07:29:46;;;;;;;1999.90;999.90;;;;;;;9.72;100.00;94499.34;4987222;28;20306;-64
2023/04/25 07:32:13;;;;;;;1999.90;999.90;;;;;;;9.88;100.00;94491.22;4987007;28;20259;-63
2023/04/25 07:34:38;;;;;;;1999.90;999.90;;;;;;;9.97;100.00;94477.03;4987214;28;20204;-63
2023/04/25 07:37:05;;;;;;;1999.90;999.90;;;;;;;10.19;100.00;94480.88;4986763;28;20263;-63
2023/04/25 07:39:30;;;;;;;1999.90;999.90;;;;;;;10.49;100.00;94490.75;4987155;28;20210;-64
2023/04/25 07:41:56;;;;;;;1999.90;999.90;;;;;;;10.85;100.00;94496.94;4986448;28;20211;-63
2023/04/25 07:44:21;;;;;;;1999.90;999.90;;;;;;;11.22;100.00;94504.59;4970327;28;20211;-63
2023/04/25 07:46:47;;;;;;;1999.90;999.90;;;;;;;11.77;100.00;94523.47;4987288;28;20204;-63
2023/04/25 07:49:12;;;;;;;1999.90;999.90;;;;;;;12.35;100.00;94535.94;4986348;28;20204;-63
2023/04/25 07:51:37;;;;;;;1999.90;999.90;;;;;;;13.62;100.00;94560.16;4986579;28;20200;-63
2023/04/25 07:54:03;;;;;;;1999.90;999.90;;;;;;;15.34;100.00;94576.59;4986526;28;20200;-63
2023/04/25 07:56:28;;;;;;;1999.90;999.90;;;;;;;17.57;100.00;94597.53;4986600;28;20200;-62
2023/04/25 07:58:53;;;;;;;1999.90;999.90;;;;;;;19.31;100.00;94596.00;4986328;28;20204;-62
2023/04/25 08:01:21;;;;;;;1999.90;999.90;;;;;;;19.31;100.00;94596.00;4986233;28;20220;-62
2023/04/25 08:03:46;;;;;;;1999.90;999.90;;;;;;;18.19;100.00;94598.38;4986662;28;20188;-60
2023/04/25 08:06:12;;;;;;;1999.90;999.90;;;;;;;17.51;100.00;94615.94;4986699;28;20272;-59
2023/04/25 08:08:37;;;;;;;1999.90;999.90;;;;;;;18.93;100.00;94617.47;4986614;28;20200;-62
2023/04/25 08:11:03;;;;;;;1999.90;999.90;;;;;;;19.87;100.00;94602.41;4986332;28;20255;-61
2023/04/25 08:13:28;;;;;;;1999.90;999.90;;;;;;;19.29;100.00;94606.03;4986271;28;20200;-59
2023/04/25 08:15:54;;;;;;;1999.90;999.90;;;;;;;17.64;100.00;94602.72;4986234;28;20270;-60
2023/04/25 08:18:19;;;;;;;1999.90;999.90;;;;;;;17.11;100.00;94607.94;4985844;28;20196;-62
2023/04/25 08:20:45;;;;;;;1999.90;999.90;;;;;;;16.83;100.00;94605.72;4986295;28;20200;-59
2023/04/25 08:23:10;;;;;;;1999.90;999.90;;;;;;;17.59;100.00;94606.88;4985912;28;20240;-63
2023/04/25 08:25:36;;;;;;;1999.90;999.90;;;;;;;18.49;100.00;94611.09;4985830;28;20239;-62
2023/04/25 08:28:02;;;;;;;1999.90;999.90;;;;;;;16.89;100.00;94604.63;4985833;28;20211;-61
2023/04/25 08:30:28;;;;;;;1999.90;999.90;;;;;;;16.54;100.00;94605.44;4986260;28;20231;-62
2023/04/25 08:32:54;;;;;;;1999.90;999.90;;;;;;;16.32;100.00;94606.31;4985615;28;20205;-63
2023/04/25 08:35:20;;;;;;;1999.90;999.90;;;;;;;15.96;100.00;94611.78;4986130;28;20188;-62
2023/04/25 08:37:46;;;;;;;1999.90;999.90;;;;;;;16.56;100.00;94609.25;4985793;28;20211;-59
2023/04/25 08:40:14;;;;;;;1999.90;999.90;;;;;;;15.68;100.00;94609.44;4969447;28;20200;-63
2023/04/25 08:42:41;;;;;;;1999.90;999.90;;;;;;;15.16;100.00;94610.28;4985940;28;20216;-61
2023/04/25 08:45:08;;;;;;;1999.90;999.90;;;;;;;15.25;100.00;94615.84;4985657;28;20207;-62
2023/04/25 08:47:34;;;;;;;1999.90;999.90;;;;;;;15.98;100.00;94614.88;4985390;28;20200;-63
2023/04/25 08:50:03;;;;;;;1999.90;999.90;;;;;;;17.14;100.00;94617.28;4985403;28;20202;-62
2023/04/25 08:52:32;;;;;;;1999.90;999.90;;;;;;;17.48;100.00;94612.13;4985756;28;20230;-61
2023/04/25 08:55:00;;;;;;;1999.90;999.90;;;;;;;16.97;100.00;94627.16;4985389;28;20236;-62
2023/04/25 08:57:26;;;;;;;1999.90;999.90;;;;;;;16.17;100.00;94626.66;4969350;28;20223;-61
2023/04/25 08:59:52;;;;;;;1999.90;999.90;;;;;;;15.73;100.00;94620.63;4969006;28;20192;-61
2023/04/25 09:02:20;;;;;;;1999.90;999.90;;;;;;;16.37;100.00;94622.25;4985246;28;20231;-61
2023/04/25 09:04:46;;;;;;;1999.90;999.90;;;;;;;16.91;100.00;94626.22;4969472;28;20204;-62
2023/04/25 09:07:11;;;;;;;1999.90;999.90;;;;;;;17.21;100.00;94625.22;4969291;28;20306;-61
2023/04/25 09:09:37;;;;;;;1999.90;999.90;;;;;;;18.66;100.00;94626.00;4969245;28;20205;-63
2023/04/25 09:12:02;;;;;;;1999.90;999.90;;;;;;;19.53;86.96;94620.56;4984999;28;20224;-62
2023/04/25 09:14:28;;;;;;;1999.90;999.90;;;;;;;19.98;76.07;94628.28;4985374;28;20204;-61
2023/04/25 09:16:56;;;;;;;1999.90;999.90;;;;;;;20.25;71.58;94625.16;4985161;28;20198;-62
2023/04/25 09:19:34;;;;;;;1999.90;999.90;;;;;;;20.41;69.31;94624.63;4985146;28;20246;-58
2023/04/25 09:22:02;;;;;;;1999.90;999.90;;;;;;;21.98;63.15;94627.97;4984961;28;20259;-59
2023/04/25 09:24:45;;;;;;;1999.90;999.90;;;;;;;21.98;63.15;94627.97;4984877;28;20243;-59
2023/04/25 09:27:13;;;;;;;1999.90;999.90;;;;;;;22.24;59.00;94631.44;4985392;28;20200;-59
2023/04/25 09:29:40;;;;;;;1999.90;999.90;;;;;;;22.73;55.55;94623.84;4984658;28;20192;-59
2023/04/25 09:32:26;;;;;;;1999.90;999.90;;;;;;;22.07;56.16;94624.97;4984956;28;20200;-59
2023/04/25 09:34:52;;;;;;;1999.90;999.90;;;;;;;21.93;55.07;94636.28;4968333;28;20203;-59
2023/04/25 09:37:22;;;;;;;1999.90;999.90;;;;;;;20.22;60.95;94634.47;4968772;28;20197;-59
2023/04/25 09:39:49;;;;;;;1999.90;999.90;;;;;;;19.25;65.44;94645.00;4968615;28;20192;-59
2023/04/25 09:42:16;;;;;;;1999.90;999.90;;;;;;;18.63;69.60;94649.88;4984856;28;20215;-60
2023/04/25 09:44:43;;;;;;;1999.90;999.90;;;;;;;17.83;77.42;94631.75;4984694;28;20199;-59
2023/04/25 09:47:13;;;;;;;1999.90;999.90;;;;;;;17.17;80.63;94638.44;4984927;28;20247;-59
2023/04/25 09:49:41;;;;;;;1999.90;999.90;;;;;;;16.54;86.85;94638.50;4985339;28;20240;-59
2023/04/25 09:52:07;;;;;;;1999.90;999.90;;;;;;;16.55;86.24;94637.28;4985029;28;20215;-58
2023/04/25 09:54:32;;;;;;;1999.90;999.90;;;;;;;16.45;88.96;94636.53;4985095;28;20248;-60
2023/04/25 09:57:02;;;;;;;1999.90;999.90;;;;;;;17.45;86.93;94637.16;4968993;28;20196;-59
2023/04/25 09:59:31;;;;;;;1999.90;999.90;;;;;;;17.58;86.19;94640.47;4968582;28;20216;-59
2023/04/25 10:01:57;;;;;;;1999.90;999.90;;;;;;;17.12;79.42;94636.31;4984473;28;20215;-59
2023/04/25 10:04:26;;;;;;;1999.90;999.90;;;;;;;16.89;81.07;94642.50;4984442;28;20227;-59
2023/04/25 10:06:53;;;;;;;1999.90;999.90;;;;;;;16.27;84.10;94639.22;4984955;28;20208;-59
2023/04/25 10:09:21;;;;;;;1999.90;999.90;;;;;;;16.32;89.75;94631.13;4968561;28;20316;-62
2023/04/25 10:11:50;;;;;;;1999.90;999.90;;;;;;;16.32;88.02;94633.13;4984964;28;20204;-62
2023/04/25 10:14:16;;;;;;;1999.90;999.90;;;;;;;15.82;92.75;94639.94;4983142;28;20216;-60
2023/04/25 10:16:42;;;;;;;1999.90;999.90;;;;;;;15.68;97.53;94635.00;4984820;28;20204;-61
2023/04/25 10:19:09;;;;;;;1999.90;999.90;;;;;;;15.72;98.38;94638.38;4984848;28;20185;-61
2023/04/25 10:21:40;;;;;;;1999.90;999.90;;;;;;;15.64;99.43;94628.88;4984220;28;20285;-61
2023/04/25 10:24:06;;;;;;;1999.90;999.90;;;;;;;17.35;89.35;94625.34;4984388;28;20196;-61
2023/04/25 10:26:31;;;;;;;1999.90;999.90;;;;;;;18.80;80.08;94625.28;4987414;28;20200;-59
2023/04/25 10:29:00;;;;;;;1999.90;999.90;;;;;;;20.08;69.70;94620.59;4971830;28;20188;-60
2023/04/25 10:31:26;;;;;;;1999.90;999.90;;;;;;;20.57;66.07;94624.03;4988059;28;20202;-60
2023/04/25 10:33:53;;;;;;;1999.90;999.90;;;;;;;19.59;61.93;94624.16;4988280;28;20256;-59
2023/04/25 10:36:23;;;;;;;1999.90;999.90;;;;;;;19.19;65.03;94623.97;4987793;28;20192;-60
2023/04/25 10:38:50;;;;;;;1999.90;999.90;;;;;;;18.13;71.59;94628.69;4987790;28;20192;-60
2023/04/25 10:41:18;;;;;;;1999.90;999.90;;;;;;;17.28;78.10;94624.91;4987712;28;20192;-60
2023/04/25 10:43:47;;;;;;;1999.90;999.90;;;;;;;16.32;100.00;94647.66;4988159;28;20267;-60
2023/04/25 10:46:31;;;;;;;1999.90;999.90;;;;;;;14.32;100.00;94673.88;4987489;28;20196;-59
2023/04/25 10:48:59;;;;;;;1999.90;999.90;;;;;;;12.79;100.00;94658.28;4987744;28;20255;-60